sensor_id;sensor_type;location;lat;lon;timestamp;P1;durP1;ratioP1;P2;durP2;ratioP2
23898;SDS011;20544;50.018;20.010;2022-12-11T00:01:19;39.18;;;22.05;;
23898;SDS011;20544;50.018;20.010;2022-12-11T00:04:38;35.88;;;21.68;;
23898;SDS011;20544;50.018;20.010;2022-12-11T00:07:55;30.95;;;20.13;;
23898;SDS011;20544;50.018;20.010;2022-12-11T00:11:11;33.03;;;19.30;;
23898;SDS011;20544;50.018;20.010;2022-12-11T00:14:31;31.38;;;19.80;;
23898;SDS011;20544;50.018;20.010;2022-12-11T00:17:49;32.05;;;20.18;;
23898;SDS011;20544;50.018;20.010;2022-12-11T00:21:07;30.20;;;18.80;;
23898;SDS011;20544;50.018;20.010;2022-12-11T00:24:25;27.53;;;17.48;;
23898;SDS011;20544;50.018;20.010;2022-12-11T00:27:41;29.83;;;17.85;;
23898;SDS011;20544;50.018;20.010;2022-12-11T00:30:58;27.45;;;17.63;;
23898;SDS011;20544;50.018;20.010;2022-12-11T00:34:18;27.60;;;18.00;;
23898;SDS011;20544;50.018;20.010;2022-12-11T00:37:34;28.45;;;17.58;;
23898;SDS011;20544;50.018;20.010;2022-12-11T00:40:50;27.05;;;17.05;;
23898;SDS011;20544;50.018;20.010;2022-12-11T00:44:10;28.50;;;17.43;;
23898;SDS011;20544;50.018;20.010;2022-12-11T00:47:26;29.15;;;17.83;;
23898;SDS011;20544;50.018;20.010;2022-12-11T00:50:42;30.90;;;18.23;;
23898;SDS011;20544;50.018;20.010;2022-12-11T00:53:59;29.68;;;17.78;;
23898;SDS011;20544;50.018;20.010;2022-12-11T00:57:16;33.83;;;18.53;;
23898;SDS011;20544;50.018;20.010;2022-12-11T01:00:32;30.05;;;17.60;;
23898;SDS011;20544;50.018;20.010;2022-12-11T01:03:49;28.98;;;17.83;;
23898;SDS011;20544;50.018;20.010;2022-12-11T01:07:06;29.10;;;18.30;;
23898;SDS011;20544;50.018;20.010;2022-12-11T01:10:23;27.23;;;17.13;;
23898;SDS011;20544;50.018;20.010;2022-12-11T01:13:40;28.20;;;17.75;;
23898;SDS011;20544;50.018;20.010;2022-12-11T01:16:59;27.38;;;17.45;;
23898;SDS011;20544;50.018;20.010;2022-12-11T01:20:15;28.60;;;16.95;;
23898;SDS011;20544;50.018;20.010;2022-12-11T01:23:34;26.80;;;17.47;;
23898;SDS011;20544;50.018;20.010;2022-12-11T01:26:50;25.65;;;17.15;;
23898;SDS011;20544;50.018;20.010;2022-12-11T01:30:08;27.55;;;17.63;;
23898;SDS011;20544;50.018;20.010;2022-12-11T01:33:26;26.03;;;17.58;;
23898;SDS011;20544;50.018;20.010;2022-12-11T01:36:43;27.65;;;18.15;;
23898;SDS011;20544;50.018;20.010;2022-12-11T01:40:00;25.80;;;17.03;;
23898;SDS011;20544;50.018;20.010;2022-12-11T01:43:19;28.30;;;18.03;;
23898;SDS011;20544;50.018;20.010;2022-12-11T01:46:35;26.75;;;17.33;;
23898;SDS011;20544;50.018;20.010;2022-12-11T01:49:52;28.68;;;18.08;;
23898;SDS011;20544;50.018;20.010;2022-12-11T01:53:09;24.95;;;16.85;;
23898;SDS011;20544;50.018;20.010;2022-12-11T01:56:31;29.33;;;17.65;;
23898;SDS011;20544;50.018;20.010;2022-12-11T01:59:49;28.93;;;18.03;;
23898;SDS011;20544;50.018;20.010;2022-12-11T02:03:06;28.88;;;17.53;;
23898;SDS011;20544;50.018;20.010;2022-12-11T02:06:33;27.00;;;17.28;;
23898;SDS011;20544;50.018;20.010;2022-12-11T02:09:52;24.08;;;16.25;;
23898;SDS011;20544;50.018;20.010;2022-12-11T02:13:10;23.75;;;15.43;;
23898;SDS011;20544;50.018;20.010;2022-12-11T02:16:33;26.05;;;16.08;;
23898;SDS011;20544;50.018;20.010;2022-12-11T02:19:56;25.58;;;16.85;;
23898;SDS011;20544;50.018;20.010;2022-12-11T02:27:15;24.23;;;17.03;;
23898;SDS011;20544;50.018;20.010;2022-12-11T02:30:41;25.05;;;16.23;;
23898;SDS011;20544;50.018;20.010;2022-12-11T02:34:03;24.48;;;16.25;;
23898;SDS011;20544;50.018;20.010;2022-12-11T02:37:25;23.40;;;15.73;;
23898;SDS011;20544;50.018;20.010;2022-12-11T02:40:44;22.25;;;14.83;;
23898;SDS011;20544;50.018;20.010;2022-12-11T02:44:03;23.05;;;14.53;;
23898;SDS011;20544;50.018;20.010;2022-12-11T02:47:20;25.53;;;14.98;;
23898;SDS011;20544;50.018;20.010;2022-12-11T02:50:41;22.08;;;14.68;;
23898;SDS011;20544;50.018;20.010;2022-12-11T02:53:59;22.63;;;14.80;;
23898;SDS011;20544;50.018;20.010;2022-12-11T02:57:19;23.07;;;14.47;;
23898;SDS011;20544;50.018;20.010;2022-12-11T03:00:38;21.95;;;14.23;;
23898;SDS011;20544;50.018;20.010;2022-12-11T03:03:56;24.80;;;15.90;;
23898;SDS011;20544;50.018;20.010;2022-12-11T03:07:14;22.45;;;15.00;;
23898;SDS011;20544;50.018;20.010;2022-12-11T03:10:34;22.30;;;14.50;;
23898;SDS011;20544;50.018;20.010;2022-12-11T03:13:50;21.73;;;14.30;;
23898;SDS011;20544;50.018;20.010;2022-12-11T03:17:10;22.78;;;14.50;;
23898;SDS011;20544;50.018;20.010;2022-12-11T03:20:31;23.48;;;15.15;;
23898;SDS011;20544;50.018;20.010;2022-12-11T03:23:54;23.85;;;14.90;;
23898;SDS011;20544;50.018;20.010;2022-12-11T03:27:17;21.80;;;14.80;;
23898;SDS011;20544;50.018;20.010;2022-12-11T03:30:36;22.60;;;14.20;;
23898;SDS011;20544;50.018;20.010;2022-12-11T03:33:57;21.08;;;13.80;;
23898;SDS011;20544;50.018;20.010;2022-12-11T03:37:17;20.58;;;14.00;;
23898;SDS011;20544;50.018;20.010;2022-12-11T03:40:36;20.13;;;13.50;;
23898;SDS011;20544;50.018;20.010;2022-12-11T03:43:57;21.20;;;14.15;;
23898;SDS011;20544;50.018;20.010;2022-12-11T03:47:14;21.30;;;14.05;;
23898;SDS011;20544;50.018;20.010;2022-12-11T03:50:33;22.03;;;14.50;;
23898;SDS011;20544;50.018;20.010;2022-12-11T03:53:51;19.35;;;12.88;;
23898;SDS011;20544;50.018;20.010;2022-12-11T03:57:08;20.58;;;13.63;;
23898;SDS011;20544;50.018;20.010;2022-12-11T04:00:27;19.73;;;13.10;;
23898;SDS011;20544;50.018;20.010;2022-12-11T04:03:44;18.45;;;13.18;;
23898;SDS011;20544;50.018;20.010;2022-12-11T04:07:00;17.90;;;12.73;;
23898;SDS011;20544;50.018;20.010;2022-12-11T04:10:17;19.43;;;13.23;;
23898;SDS011;20544;50.018;20.010;2022-12-11T04:13:33;19.83;;;13.25;;
23898;SDS011;20544;50.018;20.010;2022-12-11T04:16:50;18.53;;;13.23;;
23898;SDS011;20544;50.018;20.010;2022-12-11T04:20:10;16.55;;;12.10;;
23898;SDS011;20544;50.018;20.010;2022-12-11T04:23:40;17.90;;;12.15;;
23898;SDS011;20544;50.018;20.010;2022-12-11T04:27:11;17.38;;;11.88;;
23898;SDS011;20544;50.018;20.010;2022-12-11T04:30:30;17.18;;;12.23;;
23898;SDS011;20544;50.018;20.010;2022-12-11T04:33:47;17.80;;;12.15;;
23898;SDS011;20544;50.018;20.010;2022-12-11T04:37:04;17.88;;;12.48;;
23898;SDS011;20544;50.018;20.010;2022-12-11T04:40:20;16.60;;;12.20;;
23898;SDS011;20544;50.018;20.010;2022-12-11T04:43:37;16.33;;;12.35;;
23898;SDS011;20544;50.018;20.010;2022-12-11T04:46:55;18.05;;;12.23;;
23898;SDS011;20544;50.018;20.010;2022-12-11T04:50:12;16.20;;;11.70;;
23898;SDS011;20544;50.018;20.010;2022-12-11T04:53:29;14.98;;;10.63;;
23898;SDS011;20544;50.018;20.010;2022-12-11T04:56:45;15.98;;;11.15;;
23898;SDS011;20544;50.018;20.010;2022-12-11T05:00:02;16.78;;;10.93;;
23898;SDS011;20544;50.018;20.010;2022-12-11T05:03:21;17.08;;;10.93;;
23898;SDS011;20544;50.018;20.010;2022-12-11T05:06:38;15.30;;;10.93;;
23898;SDS011;20544;50.018;20.010;2022-12-11T05:09:55;15.00;;;10.15;;
23898;SDS011;20544;50.018;20.010;2022-12-11T05:13:11;15.45;;;11.35;;
23898;SDS011;20544;50.018;20.010;2022-12-11T05:16:27;13.90;;;10.73;;
23898;SDS011;20544;50.018;20.010;2022-12-11T05:19:43;16.15;;;10.93;;
23898;SDS011;20544;50.018;20.010;2022-12-11T05:23:02;15.73;;;11.08;;
23898;SDS011;20544;50.018;20.010;2022-12-11T05:26:19;13.58;;;10.20;;
23898;SDS011;20544;50.018;20.010;2022-12-11T05:29:35;15.15;;;10.83;;
23898;SDS011;20544;50.018;20.010;2022-12-11T05:32:51;14.93;;;10.83;;
23898;SDS011;20544;50.018;20.010;2022-12-11T05:36:08;13.98;;;10.50;;
23898;SDS011;20544;50.018;20.010;2022-12-11T05:39:28;16.38;;;10.95;;
23898;SDS011;20544;50.018;20.010;2022-12-11T05:42:44;14.25;;;10.73;;
23898;SDS011;20544;50.018;20.010;2022-12-11T05:46:05;15.63;;;10.98;;
23898;SDS011;20544;50.018;20.010;2022-12-11T05:49:23;13.68;;;10.83;;
23898;SDS011;20544;50.018;20.010;2022-12-11T05:52:39;14.08;;;10.18;;
23898;SDS011;20544;50.018;20.010;2022-12-11T05:55:59;14.23;;;10.43;;
23898;SDS011;20544;50.018;20.010;2022-12-11T05:59:19;12.68;;;9.53;;
23898;SDS011;20544;50.018;20.010;2022-12-11T06:02:35;15.33;;;10.93;;
23898;SDS011;20544;50.018;20.010;2022-12-11T06:05:52;13.50;;;9.98;;
23898;SDS011;20544;50.018;20.010;2022-12-11T06:09:11;15.55;;;10.28;;
23898;SDS011;20544;50.018;20.010;2022-12-11T06:12:29;13.50;;;10.15;;
23898;SDS011;20544;50.018;20.010;2022-12-11T06:15:46;15.60;;;10.45;;
23898;SDS011;20544;50.018;20.010;2022-12-11T06:19:03;15.90;;;10.63;;
23898;SDS011;20544;50.018;20.010;2022-12-11T06:22:24;14.10;;;10.00;;
23898;SDS011;20544;50.018;20.010;2022-12-11T06:25:40;15.55;;;10.50;;
23898;SDS011;20544;50.018;20.010;2022-12-11T06:28:57;14.08;;;9.78;;
23898;SDS011;20544;50.018;20.010;2022-12-11T06:32:15;15.00;;;10.90;;
23898;SDS011;20544;50.018;20.010;2022-12-11T06:35:31;15.80;;;11.40;;
23898;SDS011;20544;50.018;20.010;2022-12-11T06:38:48;16.08;;;11.83;;
23898;SDS011;20544;50.018;20.010;2022-12-11T06:42:05;18.03;;;12.70;;
23898;SDS011;20544;50.018;20.010;2022-12-11T06:45:23;19.03;;;12.80;;
23898;SDS011;20544;50.018;20.010;2022-12-11T06:48:40;17.75;;;12.33;;
23898;SDS011;20544;50.018;20.010;2022-12-11T06:51:56;16.93;;;11.85;;
23898;SDS011;20544;50.018;20.010;2022-12-11T06:55:13;17.58;;;12.23;;
23898;SDS011;20544;50.018;20.010;2022-12-11T06:58:30;19.48;;;12.93;;
23898;SDS011;20544;50.018;20.010;2022-12-11T07:01:47;17.85;;;12.43;;
23898;SDS011;20544;50.018;20.010;2022-12-11T07:05:05;18.85;;;12.85;;
23898;SDS011;20544;50.018;20.010;2022-12-11T07:08:22;17.73;;;12.33;;
23898;SDS011;20544;50.018;20.010;2022-12-11T07:11:40;18.83;;;13.40;;
23898;SDS011;20544;50.018;20.010;2022-12-11T07:14:56;18.45;;;12.20;;
23898;SDS011;20544;50.018;20.010;2022-12-11T07:18:13;18.33;;;12.95;;
23898;SDS011;20544;50.018;20.010;2022-12-11T07:21:30;17.40;;;11.95;;
23898;SDS011;20544;50.018;20.010;2022-12-11T07:24:46;16.85;;;12.10;;
23898;SDS011;20544;50.018;20.010;2022-12-11T07:28:03;17.88;;;12.50;;
23898;SDS011;20544;50.018;20.010;2022-12-11T07:31:22;21.03;;;13.70;;
23898;SDS011;20544;50.018;20.010;2022-12-11T07:34:42;19.00;;;12.88;;
23898;SDS011;20544;50.018;20.010;2022-12-11T07:37:58;18.50;;;12.38;;
23898;SDS011;20544;50.018;20.010;2022-12-11T07:41:15;19.53;;;13.50;;
23898;SDS011;20544;50.018;20.010;2022-12-11T07:44:33;17.38;;;12.40;;
23898;SDS011;20544;50.018;20.010;2022-12-11T07:47:50;20.38;;;13.15;;
23898;SDS011;20544;50.018;20.010;2022-12-11T07:51:10;17.75;;;12.75;;
23898;SDS011;20544;50.018;20.010;2022-12-11T07:54:32;18.20;;;12.28;;
23898;SDS011;20544;50.018;20.010;2022-12-11T07:57:49;17.45;;;12.25;;
23898;SDS011;20544;50.018;20.010;2022-12-11T08:01:09;18.95;;;12.43;;
23898;SDS011;20544;50.018;20.010;2022-12-11T08:04:30;17.58;;;12.65;;
23898;SDS011;20544;50.018;20.010;2022-12-11T08:07:46;20.25;;;13.45;;
23898;SDS011;20544;50.018;20.010;2022-12-11T08:14:27;16.63;;;11.83;;
23898;SDS011;20544;50.018;20.010;2022-12-11T08:17:48;15.18;;;10.78;;
23898;SDS011;20544;50.018;20.010;2022-12-11T08:21:05;18.25;;;12.18;;
23898;SDS011;20544;50.018;20.010;2022-12-11T08:27:39;16.33;;;11.50;;
23898;SDS011;20544;50.018;20.010;2022-12-11T08:30:55;16.40;;;11.63;;
23898;SDS011;20544;50.018;20.010;2022-12-11T08:34:15;16.15;;;11.75;;
23898;SDS011;20544;50.018;20.010;2022-12-11T08:37:33;16.50;;;11.30;;
23898;SDS011;20544;50.018;20.010;2022-12-11T08:40:50;17.38;;;11.93;;
23898;SDS011;20544;50.018;20.010;2022-12-11T08:44:08;17.35;;;12.05;;
23898;SDS011;20544;50.018;20.010;2022-12-11T08:47:27;17.28;;;11.68;;
23898;SDS011;20544;50.018;20.010;2022-12-11T08:50:44;19.48;;;12.28;;
23898;SDS011;20544;50.018;20.010;2022-12-11T08:54:01;18.15;;;12.30;;
23898;SDS011;20544;50.018;20.010;2022-12-11T08:57:21;17.73;;;11.85;;
23898;SDS011;20544;50.018;20.010;2022-12-11T09:00:38;19.10;;;12.73;;
23898;SDS011;20544;50.018;20.010;2022-12-11T09:03:55;17.08;;;12.10;;
23898;SDS011;20544;50.018;20.010;2022-12-11T09:07:12;18.35;;;13.08;;
23898;SDS011;20544;50.018;20.010;2022-12-11T09:10:29;16.28;;;12.15;;
23898;SDS011;20544;50.018;20.010;2022-12-11T09:13:48;18.30;;;13.08;;
23898;SDS011;20544;50.018;20.010;2022-12-11T09:20:24;17.03;;;12.63;;
23898;SDS011;20544;50.018;20.010;2022-12-11T09:23:42;18.23;;;12.80;;
23898;SDS011;20544;50.018;20.010;2022-12-11T09:27:03;19.73;;;13.70;;
23898;SDS011;20544;50.018;20.010;2022-12-11T09:30:20;23.38;;;13.28;;
23898;SDS011;20544;50.018;20.010;2022-12-11T09:33:38;20.95;;;14.65;;
23898;SDS011;20544;50.018;20.010;2022-12-11T09:36:55;19.33;;;13.33;;
23898;SDS011;20544;50.018;20.010;2022-12-11T09:40:12;19.95;;;13.53;;
23898;SDS011;20544;50.018;20.010;2022-12-11T09:43:35;20.83;;;14.25;;
23898;SDS011;20544;50.018;20.010;2022-12-11T09:46:55;38.68;;;17.10;;
23898;SDS011;20544;50.018;20.010;2022-12-11T09:50:14;18.13;;;13.30;;
23898;SDS011;20544;50.018;20.010;2022-12-11T09:53:35;16.28;;;12.43;;
23898;SDS011;20544;50.018;20.010;2022-12-11T09:56:54;16.18;;;12.13;;
23898;SDS011;20544;50.018;20.010;2022-12-11T10:00:20;19.95;;;12.93;;
23898;SDS011;20544;50.018;20.010;2022-12-11T10:03:50;17.85;;;13.23;;
23898;SDS011;20544;50.018;20.010;2022-12-11T10:07:27;16.33;;;12.23;;
23898;SDS011;20544;50.018;20.010;2022-12-11T10:10:50;19.03;;;13.78;;
23898;SDS011;20544;50.018;20.010;2022-12-11T10:14:12;17.58;;;12.70;;
23898;SDS011;20544;50.018;20.010;2022-12-11T10:17:35;17.48;;;12.80;;
23898;SDS011;20544;50.018;20.010;2022-12-11T10:20:53;17.40;;;12.20;;
23898;SDS011;20544;50.018;20.010;2022-12-11T10:24:17;16.40;;;11.75;;
23898;SDS011;20544;50.018;20.010;2022-12-11T10:27:40;16.10;;;12.35;;
23898;SDS011;20544;50.018;20.010;2022-12-11T10:30:57;18.70;;;13.18;;
23898;SDS011;20544;50.018;20.010;2022-12-11T10:34:20;15.83;;;12.20;;
23898;SDS011;20544;50.018;20.010;2022-12-11T10:37:41;17.15;;;12.53;;
23898;SDS011;20544;50.018;20.010;2022-12-11T10:40:59;17.38;;;12.85;;
23898;SDS011;20544;50.018;20.010;2022-12-11T10:44:22;16.50;;;12.28;;
23898;SDS011;20544;50.018;20.010;2022-12-11T10:47:40;16.18;;;12.95;;
23898;SDS011;20544;50.018;20.010;2022-12-11T10:50:58;43.90;;;29.60;;
23898;SDS011;20544;50.018;20.010;2022-12-11T10:54:25;21.75;;;14.95;;
23898;SDS011;20544;50.018;20.010;2022-12-11T10:57:44;16.70;;;12.68;;
23898;SDS011;20544;50.018;20.010;2022-12-11T11:01:09;15.43;;;11.18;;
23898;SDS011;20544;50.018;20.010;2022-12-11T11:04:31;16.33;;;12.13;;
23898;SDS011;20544;50.018;20.010;2022-12-11T11:07:50;15.20;;;12.18;;
23898;SDS011;20544;50.018;20.010;2022-12-11T11:11:26;18.45;;;13.35;;
23898;SDS011;20544;50.018;20.010;2022-12-11T11:14:45;18.18;;;13.95;;
23898;SDS011;20544;50.018;20.010;2022-12-11T11:18:15;18.73;;;14.33;;
23898;SDS011;20544;50.018;20.010;2022-12-11T11:21:34;18.78;;;15.05;;
23898;SDS011;20544;50.018;20.010;2022-12-11T11:24:55;20.20;;;15.25;;
23898;SDS011;20544;50.018;20.010;2022-12-11T11:28:14;19.48;;;15.18;;
23898;SDS011;20544;50.018;20.010;2022-12-11T11:31:34;20.75;;;15.38;;
23898;SDS011;20544;50.018;20.010;2022-12-11T11:34:53;20.95;;;15.28;;
23898;SDS011;20544;50.018;20.010;2022-12-11T11:38:35;21.50;;;16.13;;
23898;SDS011;20544;50.018;20.010;2022-12-11T11:41:57;20.25;;;15.38;;
23898;SDS011;20544;50.018;20.010;2022-12-11T11:45:23;35.00;;;24.35;;
23898;SDS011;20544;50.018;20.010;2022-12-11T11:48:47;26.48;;;18.03;;
23898;SDS011;20544;50.018;20.010;2022-12-11T11:52:14;21.20;;;16.35;;
23898;SDS011;20544;50.018;20.010;2022-12-11T11:55:39;21.88;;;15.15;;
23898;SDS011;20544;50.018;20.010;2022-12-11T11:59:04;20.55;;;16.15;;
23898;SDS011;20544;50.018;20.010;2022-12-11T12:02:24;20.40;;;16.23;;
23898;SDS011;20544;50.018;20.010;2022-12-11T12:05:44;31.63;;;19.10;;
23898;SDS011;20544;50.018;20.010;2022-12-11T12:09:10;21.13;;;16.45;;
23898;SDS011;20544;50.018;20.010;2022-12-11T12:12:38;21.28;;;15.70;;
23898;SDS011;20544;50.018;20.010;2022-12-11T12:16:00;22.65;;;16.68;;
23898;SDS011;20544;50.018;20.010;2022-12-11T12:19:30;23.28;;;17.10;;
23898;SDS011;20544;50.018;20.010;2022-12-11T12:23:05;22.48;;;17.20;;
23898;SDS011;20544;50.018;20.010;2022-12-11T12:26:31;22.78;;;17.28;;
23898;SDS011;20544;50.018;20.010;2022-12-11T12:29:51;22.43;;;17.18;;
23898;SDS011;20544;50.018;20.010;2022-12-11T12:33:17;25.78;;;17.43;;
23898;SDS011;20544;50.018;20.010;2022-12-11T12:36:41;24.05;;;18.23;;
23898;SDS011;20544;50.018;20.010;2022-12-11T12:40:06;22.63;;;17.53;;
23898;SDS011;20544;50.018;20.010;2022-12-11T12:43:40;23.00;;;17.40;;
23898;SDS011;20544;50.018;20.010;2022-12-11T12:47:18;22.78;;;17.15;;
23898;SDS011;20544;50.018;20.010;2022-12-11T12:50:37;172.63;;;41.70;;
23898;SDS011;20544;50.018;20.010;2022-12-11T12:54:02;26.55;;;16.98;;
23898;SDS011;20544;50.018;20.010;2022-12-11T12:57:25;23.85;;;16.40;;
23898;SDS011;20544;50.018;20.010;2022-12-11T13:00:46;21.80;;;15.03;;
23898;SDS011;20544;50.018;20.010;2022-12-11T13:04:04;18.88;;;14.15;;
23898;SDS011;20544;50.018;20.010;2022-12-11T13:07:38;21.23;;;14.35;;
23898;SDS011;20544;50.018;20.010;2022-12-11T13:11:02;20.93;;;14.85;;
23898;SDS011;20544;50.018;20.010;2022-12-11T13:14:27;20.52;;;14.38;;
23898;SDS011;20544;50.018;20.010;2022-12-11T13:17:45;19.38;;;15.13;;
23898;SDS011;20544;50.018;20.010;2022-12-11T13:21:42;20.38;;;15.75;;
23898;SDS011;20544;50.018;20.010;2022-12-11T13:25:18;21.93;;;16.03;;
23898;SDS011;20544;50.018;20.010;2022-12-11T13:28:47;53.95;;;34.08;;
23898;SDS011;20544;50.018;20.010;2022-12-11T13:32:18;30.00;;;19.43;;
23898;SDS011;20544;50.018;20.010;2022-12-11T13:35:38;23.10;;;16.58;;
23898;SDS011;20544;50.018;20.010;2022-12-11T13:38:58;24.18;;;16.33;;
23898;SDS011;20544;50.018;20.010;2022-12-11T13:42:28;22.08;;;16.20;;
23898;SDS011;20544;50.018;20.010;2022-12-11T13:45:49;23.45;;;16.25;;
23898;SDS011;20544;50.018;20.010;2022-12-11T13:49:15;22.65;;;16.10;;
23898;SDS011;20544;50.018;20.010;2022-12-11T13:52:51;21.30;;;16.18;;
23898;SDS011;20544;50.018;20.010;2022-12-11T13:56:15;22.28;;;16.58;;
23898;SDS011;20544;50.018;20.010;2022-12-11T13:59:34;24.50;;;16.60;;
23898;SDS011;20544;50.018;20.010;2022-12-11T14:02:56;24.38;;;16.75;;
23898;SDS011;20544;50.018;20.010;2022-12-11T14:06:16;25.90;;;17.45;;
23898;SDS011;20544;50.018;20.010;2022-12-11T14:09:33;24.45;;;18.18;;
23898;SDS011;20544;50.018;20.010;2022-12-11T14:12:56;27.28;;;19.05;;
23898;SDS011;20544;50.018;20.010;2022-12-11T14:16:18;28.85;;;19.00;;
23898;SDS011;20544;50.018;20.010;2022-12-11T14:19:37;30.43;;;19.95;;
23898;SDS011;20544;50.018;20.010;2022-12-11T14:23:04;28.25;;;20.18;;
23898;SDS011;20544;50.018;20.010;2022-12-11T14:26:28;29.20;;;20.28;;
23898;SDS011;20544;50.018;20.010;2022-12-11T14:29:47;27.25;;;19.45;;
23898;SDS011;20544;50.018;20.010;2022-12-11T14:33:05;26.38;;;18.65;;
23898;SDS011;20544;50.018;20.010;2022-12-11T14:36:23;25.33;;;18.25;;
23898;SDS011;20544;50.018;20.010;2022-12-11T14:39:42;24.28;;;16.80;;
23898;SDS011;20544;50.018;20.010;2022-12-11T14:43:04;23.18;;;16.35;;
23898;SDS011;20544;50.018;20.010;2022-12-11T14:46:27;24.68;;;17.50;;
23898;SDS011;20544;50.018;20.010;2022-12-11T14:49:51;75.85;;;49.80;;
23898;SDS011;20544;50.018;20.010;2022-12-11T14:53:18;38.35;;;22.98;;
23898;SDS011;20544;50.018;20.010;2022-12-11T14:56:37;27.73;;;19.78;;
23898;SDS011;20544;50.018;20.010;2022-12-11T14:59:54;28.43;;;19.40;;
23898;SDS011;20544;50.018;20.010;2022-12-11T15:03:21;27.88;;;19.90;;
23898;SDS011;20544;50.018;20.010;2022-12-11T15:06:44;29.13;;;21.08;;
23898;SDS011;20544;50.018;20.010;2022-12-11T15:10:02;31.98;;;22.05;;
23898;SDS011;20544;50.018;20.010;2022-12-11T15:13:33;34.55;;;23.15;;
23898;SDS011;20544;50.018;20.010;2022-12-11T15:16:54;34.73;;;24.68;;
23898;SDS011;20544;50.018;20.010;2022-12-11T15:20:21;32.25;;;22.20;;
23898;SDS011;20544;50.018;20.010;2022-12-11T15:23:46;28.23;;;20.05;;
23898;SDS011;20544;50.018;20.010;2022-12-11T15:27:21;28.48;;;19.75;;
23898;SDS011;20544;50.018;20.010;2022-12-11T15:30:34;28.50;;;19.38;;
23898;SDS011;20544;50.018;20.010;2022-12-11T15:33:58;29.65;;;20.52;;
23898;SDS011;20544;50.018;20.010;2022-12-11T15:37:19;29.30;;;20.50;;
23898;SDS011;20544;50.018;20.010;2022-12-11T15:40:38;31.68;;;21.77;;
23898;SDS011;20544;50.018;20.010;2022-12-11T15:43:55;71.10;;;43.10;;
23898;SDS011;20544;50.018;20.010;2022-12-11T15:47:27;46.58;;;30.83;;
23898;SDS011;20544;50.018;20.010;2022-12-11T15:50:44;37.75;;;24.83;;
23898;SDS011;20544;50.018;20.010;2022-12-11T15:54:01;35.55;;;23.95;;
23898;SDS011;20544;50.018;20.010;2022-12-11T15:57:21;38.98;;;26.08;;
23898;SDS011;20544;50.018;20.010;2022-12-11T16:00:43;38.20;;;25.85;;
23898;SDS011;20544;50.018;20.010;2022-12-11T16:04:00;37.13;;;25.30;;
23898;SDS011;20544;50.018;20.010;2022-12-11T16:07:18;37.10;;;25.75;;
23898;SDS011;20544;50.018;20.010;2022-12-11T16:10:37;40.03;;;26.48;;
23898;SDS011;20544;50.018;20.010;2022-12-11T16:14:02;38.08;;;25.50;;
23898;SDS011;20544;50.018;20.010;2022-12-11T16:17:19;41.13;;;26.28;;
23898;SDS011;20544;50.018;20.010;2022-12-11T16:20:38;36.15;;;25.73;;
23898;SDS011;20544;50.018;20.010;2022-12-11T16:23:56;37.35;;;25.90;;
23898;SDS011;20544;50.018;20.010;2022-12-11T16:27:13;39.73;;;27.13;;
23898;SDS011;20544;50.018;20.010;2022-12-11T16:30:35;38.95;;;26.68;;
23898;SDS011;20544;50.018;20.010;2022-12-11T16:33:53;38.28;;;26.13;;
23898;SDS011;20544;50.018;20.010;2022-12-11T16:37:10;37.00;;;26.35;;
23898;SDS011;20544;50.018;20.010;2022-12-11T16:40:34;37.83;;;27.28;;
23898;SDS011;20544;50.018;20.010;2022-12-11T16:47:22;38.43;;;25.93;;
23898;SDS011;20544;50.018;20.010;2022-12-11T16:50:39;39.05;;;27.43;;
23898;SDS011;20544;50.018;20.010;2022-12-11T16:57:14;38.85;;;26.80;;
23898;SDS011;20544;50.018;20.010;2022-12-11T17:00:31;39.43;;;26.45;;
23898;SDS011;20544;50.018;20.010;2022-12-11T17:03:52;37.13;;;25.28;;
23898;SDS011;20544;50.018;20.010;2022-12-11T17:07:12;35.43;;;25.65;;
23898;SDS011;20544;50.018;20.010;2022-12-11T17:10:32;35.60;;;25.60;;
23898;SDS011;20544;50.018;20.010;2022-12-11T17:13:57;38.18;;;26.28;;
23898;SDS011;20544;50.018;20.010;2022-12-11T17:17:15;107.60;;;66.98;;
23898;SDS011;20544;50.018;20.010;2022-12-11T17:20:50;40.73;;;28.20;;
23898;SDS011;20544;50.018;20.010;2022-12-11T17:24:08;36.88;;;26.30;;
23898;SDS011;20544;50.018;20.010;2022-12-11T17:27:25;34.08;;;24.65;;
23898;SDS011;20544;50.018;20.010;2022-12-11T17:30:42;36.90;;;25.83;;
23898;SDS011;20544;50.018;20.010;2022-12-11T17:33:59;37.38;;;25.88;;
23898;SDS011;20544;50.018;20.010;2022-12-11T17:37:16;41.00;;;28.33;;
23898;SDS011;20544;50.018;20.010;2022-12-11T17:40:39;38.85;;;27.85;;
23898;SDS011;20544;50.018;20.010;2022-12-11T17:43:57;36.73;;;26.13;;
23898;SDS011;20544;50.018;20.010;2022-12-11T17:47:14;40.93;;;27.03;;
23898;SDS011;20544;50.018;20.010;2022-12-11T17:50:33;39.95;;;29.15;;
23898;SDS011;20544;50.018;20.010;2022-12-11T17:53:53;43.20;;;30.43;;
23898;SDS011;20544;50.018;20.010;2022-12-11T17:57:10;42.93;;;30.15;;
23898;SDS011;20544;50.018;20.010;2022-12-11T18:00:31;44.23;;;29.23;;
23898;SDS011;20544;50.018;20.010;2022-12-11T18:03:48;43.15;;;29.95;;
23898;SDS011;20544;50.018;20.010;2022-12-11T18:07:06;43.05;;;30.33;;
23898;SDS011;20544;50.018;20.010;2022-12-11T18:10:24;42.30;;;29.35;;
23898;SDS011;20544;50.018;20.010;2022-12-11T18:13:49;42.68;;;29.98;;
23898;SDS011;20544;50.018;20.010;2022-12-11T18:17:07;41.13;;;28.88;;
23898;SDS011;20544;50.018;20.010;2022-12-11T18:20:26;42.33;;;29.03;;
23898;SDS011;20544;50.018;20.010;2022-12-11T18:24:17;39.30;;;28.10;;
23898;SDS011;20544;50.018;20.010;2022-12-11T18:31:10;36.05;;;25.10;;
23898;SDS011;20544;50.018;20.010;2022-12-11T18:34:29;36.00;;;24.38;;
23898;SDS011;20544;50.018;20.010;2022-12-11T18:37:47;36.03;;;25.23;;
23898;SDS011;20544;50.018;20.010;2022-12-11T18:41:05;34.10;;;24.90;;
23898;SDS011;20544;50.018;20.010;2022-12-11T18:44:25;33.18;;;23.90;;
23898;SDS011;20544;50.018;20.010;2022-12-11T18:47:42;33.43;;;24.28;;
23898;SDS011;20544;50.018;20.010;2022-12-11T18:50:59;34.10;;;24.58;;
23898;SDS011;20544;50.018;20.010;2022-12-11T18:54:19;34.73;;;23.95;;
23898;SDS011;20544;50.018;20.010;2022-12-11T18:57:36;32.55;;;23.80;;
23898;SDS011;20544;50.018;20.010;2022-12-11T19:00:53;32.20;;;24.48;;
23898;SDS011;20544;50.018;20.010;2022-12-11T19:04:13;94.08;;;56.23;;
23898;SDS011;20544;50.018;20.010;2022-12-11T19:07:44;41.75;;;28.35;;
23898;SDS011;20544;50.018;20.010;2022-12-11T19:11:01;35.85;;;25.90;;
23898;SDS011;20544;50.018;20.010;2022-12-11T19:14:20;36.37;;;25.13;;
23898;SDS011;20544;50.018;20.010;2022-12-11T19:17:37;32.60;;;24.45;;
23898;SDS011;20544;50.018;20.010;2022-12-11T19:20:53;36.05;;;25.08;;
23898;SDS011;20544;50.018;20.010;2022-12-11T19:24:14;35.23;;;25.30;;
23898;SDS011;20544;50.018;20.010;2022-12-11T19:27:37;35.10;;;24.63;;
23898;SDS011;20544;50.018;20.010;2022-12-11T19:31:01;36.58;;;25.73;;
23898;SDS011;20544;50.018;20.010;2022-12-11T19:34:24;37.03;;;25.93;;
23898;SDS011;20544;50.018;20.010;2022-12-11T19:37:42;37.20;;;26.38;;